Time,TemperatureF,DewpointF,PressureIn,WindDirection,WindDirectionDegrees,WindSpeedMPH,WindSpeedGustMPH,Humidity,HourlyPrecipIn,Conditions,Clouds,dailyrainin,SoftwareType,DateUTC
2013-01-10 00:01:00,14.1,8.5,30.03,East,99,0.0,0.0,78,0.00,,,0.00,vanprod-2.5-rc3,2013-01-10 07:01:00,
2013-01-10 00:06:00,14.2,9.2,30.02,SE,135,0.0,0.0,80,0.00,,,0.00,vanprod-2.5-rc3,2013-01-10 07:06:00,
2013-01-10 00:11:00,14.4,9.4,30.02,SE,134,0.0,0.0,80,0.00,,,0.00,vanprod-2.5-rc3,2013-01-10 07:11:00,
2013-01-10 00:16:00,14.5,9.5,30.02,SE,134,0.0,0.0,80,0.00,,,0.00,vanprod-2.5-rc3,2013-01-10 07:16:00,
2013-01-10 00:21:00,14.6,9.6,30.01,SE,134,0.0,0.0,80,0.00,,,0.00,vanprod-2.5-rc3,2013-01-10 07:21:00,
2013-01-10 00:26:00,14.3,9.0,30.00,SE,134,0.0,0.0,79,0.00,,,0.00,vanprod-2.5-rc3,2013-01-10 07:26:00,
2013-01-10 00:31:00,14.1,8.8,30.00,NE,42,0.0,0.0,79,0.00,,,0.00,vanprod-2.5-rc3,2013-01-10 07:31:00,
2013-01-10 00:36:00,14.2,9.5,30.00,NE,43,0.0,0.0,81,0.00,,,0.00,vanprod-2.5-rc3,2013-01-10 07:36:00,
2013-01-10 00:41:00,14.2,9.2,30.00,NE,43,0.0,0.0,80,0.00,,,0.00,vanprod-2.5-rc3,2013-01-10 07:41:00,
2013-01-10 00:46:00,14.0,8.7,30.00,SE,133,0.0,0.0,79,0.00,,,0.00,vanprod-2.5-rc3,2013-01-10 07:46:00,
2013-01-10 00:51:00,13.9,8.6,30.00,SE,134,0.0,0.0,79,0.00,,,0.00,vanprod-2.5-rc3,2013-01-10 07:51:00,
2013-01-10 00:56:00,13.9,8.9,29.99,SE,145,0.0,0.0,80,0.00,,,0.00,vanprod-2.5-rc3,2013-01-10 07:56:00,
2013-01-10 01:01:00,14.2,9.5,29.98,ENE,62,1.0,2.0,81,0.00,,,0.00,vanprod-2.5-rc3,2013-01-10 08:01:00,
2013-01-10 01:06:00,14.1,9.1,29.98,SSE,150,0.0,0.0,80,0.00,,,0.00,vanprod-2.5-rc3,2013-01-10 08:06:00,
2013-01-10 01:11:00,13.8,8.8,29.98,South,181,0.0,0.0,80,0.00,,,0.00,vanprod-2.5-rc3,2013-01-10 08:11:00,
2013-01-10 01:16:00,13.6,8.6,29.98,South,181,0.0,0.0,80,0.00,,,0.00,vanprod-2.5-rc3,2013-01-10 08:16:00,
2013-01-10 01:21:00,13.3,8.3,29.99,South,181,0.0,0.0,80,0.00,,,0.00,vanprod-2.5-rc3,2013-01-10 08:21:00,
2013-01-10 01:26:00,13.2,8.5,29.99,South,180,0.0,0.0,81,0.00,,,0.00,vanprod-2.5-rc3,2013-01-10 08:26:00,
2013-01-10 01:31:00,13.1,8.4,29.98,ENE,74,2.0,4.0,81,0.00,,,0.00,vanprod-2.5-rc3,2013-01-10 08:31:00,
2013-01-10 01:36:00,12.9,8.2,29.98,East,95,4.0,5.0,81,0.00,,,0.00,vanprod-2.5-rc3,2013-01-10 08:36:00,
2013-01-10 01:41:00,13.2,8.7,29.98,East,99,2.0,2.0,82,0.00,,,0.00,vanprod-2.5-rc3,2013-01-10 08:41:00,
2013-01-10 01:46:00,13.9,9.7,29.97,SE,134,3.0,3.0,83,0.00,,,0.00,vanprod-2.5-rc3,2013-01-10 08:46:00,
2013-01-10 01:51:00,14.1,9.6,29.96,South,185,0.0,0.0,82,0.00,,,0.00,vanprod-2.5-rc3,2013-01-10 08:51:00,
2013-01-10 01:56:00,13.8,9.1,29.97,SE,129,1.0,2.0,81,0.00,,,0.00,vanprod-2.5-rc3,2013-01-10 08:56:00,
2013-01-10 02:01:00,13.4,8.4,29.99,ESE,118,0.0,0.0,80,0.00,,,0.00,vanprod-2.5-rc3,2013-01-10 09:01:00,
2013-01-10 02:06:00,13.4,8.7,29.98,ESE,119,0.0,0.0,81,0.00,,,0.00,vanprod-2.5-rc3,2013-01-10 09:06:00,
2013-01-10 02:11:00,13.2,8.5,29.98,ESE,119,0.0,0.0,81,0.00,,,0.00,vanprod-2.5-rc3,2013-01-10 09:11:00,
2013-01-10 02:16:00,13.1,8.4,29.97,ESE,117,0.0,0.0,81,0.00,,,0.00,vanprod-2.5-rc3,2013-01-10 09:16:00,
2013-01-10 02:21:00,12.8,8.1,29.97,East,92,4.0,4.0,81,0.00,,,0.00,vanprod-2.5-rc3,2013-01-10 09:21:00,
2013-01-10 02:26:00,12.8,8.1,29.97,East,99,3.0,4.0,81,0.00,,,0.00,vanprod-2.5-rc3,2013-01-10 09:26:00,
2013-01-10 02:31:00,12.9,8.2,29.97,East,94,4.0,4.0,81,0.00,,,0.00,vanprod-2.5-rc3,2013-01-10 09:31:00,
2013-01-10 02:36:00,12.9,8.2,29.97,East,92,2.0,3.0,81,0.00,,,0.00,vanprod-2.5-rc3,2013-01-10 09:36:00,
2013-01-10 02:41:00,13.2,8.7,29.97,East,93,1.0,0.0,82,0.00,,,0.00,vanprod-2.5-rc3,2013-01-10 09:41:00,
2013-01-10 02:46:00,13.4,8.9,29.97,East,92,0.0,0.0,82,0.00,,,0.00,vanprod-2.5-rc3,2013-01-10 09:46:00,
2013-01-10 02:51:00,13.4,8.9,29.97,East,92,0.0,0.0,82,0.00,,,0.00,vanprod-2.5-rc3,2013-01-10 09:51:00,
2013-01-10 02:56:00,13.4,8.9,29.97,East,92,0.0,0.0,82,0.00,,,0.00,vanprod-2.5-rc3,2013-01-10 09:56:00,
2013-01-10 03:01:00,13.3,8.8,29.97,East,92,0.0,0.0,82,0.00,,,0.00,vanprod-2.5-rc3,2013-01-10 10:01:00,
2013-01-10 03:06:00,12.9,8.2,29.96,East,92,0.0,0.0,81,0.00,,,0.00,vanprod-2.5-rc3,2013-01-10 10:06:00,
2013-01-10 03:11:00,12.8,8.1,29.96,East,92,0.0,0.0,81,0.00,,,0.00,vanprod-2.5-rc3,2013-01-10 10:11:00,
2013-01-10 03:16:00,12.8,8.4,29.96,East,92,0.0,0.0,82,0.00,,,0.00,vanprod-2.5-rc3,2013-01-10 10:16:00,
2013-01-10 03:21:00,12.8,8.4,29.96,East,92,0.0,0.0,82,0.00,,,0.00,vanprod-2.5-rc3,2013-01-10 10:21:00,
2013-01-10 03:26:00,12.8,8.4,29.96,East,92,0.0,0.0,82,0.00,,,0.00,vanprod-2.5-rc3,2013-01-10 10:26:00,
2013-01-10 03:31:00,12.8,8.4,29.96,East,92,0.0,0.0,82,0.00,,,0.00,vanprod-2.5-rc3,2013-01-10 10:31:00,
2013-01-10 03:36:00,12.6,7.9,29.96,East,92,0.0,0.0,81,0.00,,,0.00,vanprod-2.5-rc3,2013-01-10 10:36:00,
2013-01-10 03:41:00,12.3,7.9,29.95,East,92,0.0,0.0,82,0.00,,,0.00,vanprod-2.5-rc3,2013-01-10 10:41:00,
2013-01-10 03:46:00,12.4,8.2,29.95,East,92,0.0,0.0,83,0.00,,,0.00,vanprod-2.5-rc3,2013-01-10 10:46:00,
2013-01-10 03:51:00,12.5,8.3,29.95,East,92,0.0,0.0,83,0.00,,,0.00,vanprod-2.5-rc3,2013-01-10 10:51:00,
2013-01-10 03:56:00,12.4,8.2,29.95,East,92,0.0,0.0,83,0.00,,,0.00,vanprod-2.5-rc3,2013-01-10 10:56:00,
2013-01-10 04:01:00,12.2,7.8,29.93,East,92,0.0,0.0,82,0.00,,,0.00,vanprod-2.5-rc3,2013-01-10 11:01:00,
2013-01-10 04:06:00,12.1,7.9,29.93,East,91,0.0,0.0,83,0.00,,,0.00,vanprod-2.5-rc3,2013-01-10 11:06:00,
2013-01-10 04:11:00,12.1,7.7,29.92,ESE,115,0.0,0.0,82,0.00,,,0.00,vanprod-2.5-rc3,2013-01-10 11:11:00,
2013-01-10 04:16:00,12.3,8.1,29.91,ENE,69,3.0,5.0,83,0.00,,,0.00,vanprod-2.5-rc3,2013-01-10 11:16:00,
2013-01-10 04:21:00,13.2,9.5,29.92,ENE,74,6.0,7.0,85,0.00,,,0.00,vanprod-2.5-rc3,2013-01-10 11:21:00,
2013-01-10 04:26:00,14.1,10.4,29.92,ENE,71,5.0,5.0,85,0.00,,,0.00,vanprod-2.5-rc3,2013-01-10 11:26:00,
2013-01-10 04:31:00,14.7,11.0,29.93,East,80,5.0,5.0,85,0.00,,,0.00,vanprod-2.5-rc3,2013-01-10 11:31:00,
2013-01-10 04:36:00,15.0,11.0,29.93,East,90,4.0,4.0,84,0.00,,,0.00,vanprod-2.5-rc3,2013-01-10 11:36:00,
2013-01-10 04:41:00,15.2,11.0,29.93,East,80,6.0,6.0,83,0.00,,,0.00,vanprod-2.5-rc3,2013-01-10 11:41:00,
2013-01-10 04:46:00,15.3,11.1,29.92,East,86,4.0,4.0,83,0.00,,,0.00,vanprod-2.5-rc3,2013-01-10 11:46:00,
2013-01-10 04:51:00,15.3,11.1,29.92,East,100,4.0,6.0,83,0.00,,,0.00,vanprod-2.5-rc3,2013-01-10 11:51:00,
2013-01-10 04:56:00,15.4,11.2,29.92,ESE,102,5.0,5.0,83,0.00,,,0.00,vanprod-2.5-rc3,2013-01-10 11:56:00,
2013-01-10 05:01:00,15.6,11.4,29.92,East,82,4.0,4.0,83,0.00,,,0.00,vanprod-2.5-rc3,2013-01-10 12:01:00,
2013-01-10 05:06:00,15.7,11.2,29.92,ENE,78,4.0,4.0,82,0.00,,,0.00,vanprod-2.5-rc3,2013-01-10 12:06:00,
2013-01-10 05:11:00,15.8,11.3,29.92,ENE,62,5.0,6.0,82,0.00,,,0.00,vanprod-2.5-rc3,2013-01-10 12:11:00,
2013-01-10 05:16:00,15.9,11.4,29.91,ENE,66,6.0,7.0,82,0.00,,,0.00,vanprod-2.5-rc3,2013-01-10 12:16:00,
2013-01-10 05:21:00,16.0,11.5,29.90,ENE,74,9.0,11.0,82,0.00,,,0.00,vanprod-2.5-rc3,2013-01-10 12:21:00,
2013-01-10 05:26:00,16.2,11.7,29.90,East,85,7.0,7.0,82,0.00,,,0.00,vanprod-2.5-rc3,2013-01-10 12:26:00,
2013-01-10 05:31:00,16.4,11.9,29.90,East,80,7.0,7.0,82,0.00,,,0.00,vanprod-2.5-rc3,2013-01-10 12:31:00,
2013-01-10 05:36:00,16.6,12.1,29.89,East,88,5.0,5.0,82,0.00,,,0.00,vanprod-2.5-rc3,2013-01-10 12:36:00,
2013-01-10 05:41:00,16.7,12.2,29.89,East,80,5.0,5.0,82,0.00,,,0.00,vanprod-2.5-rc3,2013-01-10 12:41:00,
2013-01-10 05:46:00,16.8,12.0,29.89,ENE,74,4.0,4.0,81,0.00,,,0.00,vanprod-2.5-rc3,2013-01-10 12:46:00,
2013-01-10 05:51:00,16.9,12.1,29.89,East,81,2.0,2.0,81,0.00,,,0.00,vanprod-2.5-rc3,2013-01-10 12:51:00,
2013-01-10 05:56:00,16.1,10.2,29.89,South,171,0.0,0.0,77,0.00,,,0.00,vanprod-2.5-rc3,2013-01-10 12:56:00,
2013-01-10 06:01:00,15.5,9.9,29.88,ENE,58,2.0,3.0,78,0.00,,,0.00,vanprod-2.5-rc3,2013-01-10 13:01:00,
2013-01-10 06:06:00,15.6,10.5,29.88,NE,53,3.0,3.0,80,0.00,,,0.00,vanprod-2.5-rc3,2013-01-10 13:06:00,
2013-01-10 06:11:00,15.7,10.9,29.88,NE,53,0.0,0.0,81,0.00,,,0.00,vanprod-2.5-rc3,2013-01-10 13:11:00,
2013-01-10 06:16:00,15.4,10.1,29.88,NE,52,0.0,0.0,79,0.00,,,0.00,vanprod-2.5-rc3,2013-01-10 13:16:00,
2013-01-10 06:21:00,15.1,10.1,29.88,NE,53,0.0,0.0,80,0.00,,,0.00,vanprod-2.5-rc3,2013-01-10 13:21:00,
2013-01-10 06:26:00,15.2,10.2,29.88,South,174,1.0,0.0,80,0.00,,,0.00,vanprod-2.5-rc3,2013-01-10 13:26:00,
2013-01-10 06:31:00,15.2,10.2,29.88,South,173,0.0,0.0,80,0.00,,,0.00,vanprod-2.5-rc3,2013-01-10 13:31:00,
2013-01-10 06:36:00,15.0,10.0,29.88,East,86,2.0,3.0,80,0.00,,,0.00,vanprod-2.5-rc3,2013-01-10 13:36:00,
2013-01-10 06:41:00,15.7,11.2,29.87,ENE,68,7.0,7.0,82,0.00,,,0.00,vanprod-2.5-rc3,2013-01-10 13:41:00,
2013-01-10 06:46:00,16.6,12.1,29.85,ENE,59,7.0,9.0,82,0.00,,,0.00,vanprod-2.5-rc3,2013-01-10 13:46:00,
2013-01-10 06:51:00,17.2,12.1,29.85,East,85,5.0,5.0,80,0.00,,,0.00,vanprod-2.5-rc3,2013-01-10 13:51:00,
2013-01-10 06:56:00,17.4,12.3,29.86,East,84,4.0,5.0,80,0.00,,,0.00,vanprod-2.5-rc3,2013-01-10 13:56:00,
2013-01-10 07:01:00,17.5,12.1,29.87,ESE,114,3.0,4.0,79,0.00,,,0.00,vanprod-2.5-rc3,2013-01-10 14:01:00,
2013-01-10 07:06:00,17.0,11.0,29.87,South,190,0.0,0.0,77,0.00,,,0.00,vanprod-2.5-rc3,2013-01-10 14:06:00,
2013-01-10 07:11:00,16.4,10.8,29.87,ESE,103,0.0,0.0,78,0.00,,,0.00,vanprod-2.5-rc3,2013-01-10 14:11:00,
2013-01-10 07:16:00,16.3,10.9,29.86,ESE,102,0.0,0.0,79,0.00,,,0.00,vanprod-2.5-rc3,2013-01-10 14:16:00,
2013-01-10 07:21:00,16.4,11.3,29.85,ESE,102,0.0,0.0,80,0.00,,,0.00,vanprod-2.5-rc3,2013-01-10 14:21:00,
2013-01-10 07:26:00,16.4,11.0,29.85,SE,125,0.0,0.0,79,0.00,,,0.00,vanprod-2.5-rc3,2013-01-10 14:26:00,
2013-01-10 07:31:00,15.7,9.8,29.85,SE,125,0.0,0.0,77,0.00,,,0.00,vanprod-2.5-rc3,2013-01-10 14:31:00,
2013-01-10 07:36:00,15.0,9.1,29.85,SE,125,0.0,0.0,77,0.00,,,0.00,vanprod-2.5-rc3,2013-01-10 14:36:00,
2013-01-10 07:41:00,14.7,9.1,29.86,SE,125,0.0,0.0,78,0.00,,,0.00,vanprod-2.5-rc3,2013-01-10 14:41:00,
2013-01-10 07:46:00,14.6,9.3,29.85,SE,125,0.0,0.0,79,0.00,,,0.00,vanprod-2.5-rc3,2013-01-10 14:46:00,
2013-01-10 07:51:00,14.5,9.5,29.85,South,176,0.0,0.0,80,0.00,,,0.00,vanprod-2.5-rc3,2013-01-10 14:51:00,
2013-01-10 07:56:00,14.3,9.0,29.86,SSE,165,0.0,0.0,79,0.00,,,0.00,vanprod-2.5-rc3,2013-01-10 14:56:00,
2013-01-10 08:01:00,13.8,9.1,29.86,NNE,20,1.0,4.0,81,0.00,,,0.00,vanprod-2.5-rc3,2013-01-10 15:01:00,
2013-01-10 08:06:00,14.2,9.7,29.85,SE,144,0.0,3.0,82,0.00,,,0.00,vanprod-2.5-rc3,2013-01-10 15:06:00,
2013-01-10 08:11:00,14.6,10.1,29.86,East,97,2.0,2.0,82,0.00,,,0.00,vanprod-2.5-rc3,2013-01-10 15:11:00,
2013-01-10 08:16:00,15.6,11.1,29.83,East,81,6.0,6.0,82,0.00,,,0.00,vanprod-2.5-rc3,2013-01-10 15:16:00,
2013-01-10 08:21:00,16.5,11.7,29.84,NE,54,5.0,5.0,81,0.00,,,0.00,vanprod-2.5-rc3,2013-01-10 15:21:00,
2013-01-10 08:26:00,17.2,12.4,29.84,East,97,4.0,4.0,81,0.00,,,0.00,vanprod-2.5-rc3,2013-01-10 15:26:00,
2013-01-10 08:31:00,18.0,12.6,29.84,NE,48,4.0,5.0,79,0.00,,,0.00,vanprod-2.5-rc3,2013-01-10 15:31:00,
2013-01-10 08:36:00,18.4,12.7,29.83,ESE,114,2.0,3.0,78,0.00,,,0.00,vanprod-2.5-rc3,2013-01-10 15:36:00,
2013-01-10 08:41:00,18.3,12.0,29.84,SSE,161,1.0,4.0,76,0.00,,,0.00,vanprod-2.5-rc3,2013-01-10 15:41:00,
2013-01-10 08:46:00,18.0,11.7,29.84,SE,131,3.0,3.0,76,0.00,,,0.00,vanprod-2.5-rc3,2013-01-10 15:46:00,
2013-01-10 08:51:00,17.9,11.6,29.84,NNE,20,0.0,0.0,76,0.00,,,0.00,vanprod-2.5-rc3,2013-01-10 15:51:00,
2013-01-10 08:56:00,18.0,11.7,29.83,ENE,69,3.0,3.0,76,0.00,,,0.00,vanprod-2.5-rc3,2013-01-10 15:56:00,
2013-01-10 09:01:00,18.1,11.8,29.81,NE,48,3.0,3.0,76,0.00,,,0.00,vanprod-2.5-rc3,2013-01-10 16:01:00,
2013-01-10 09:06:00,18.3,12.0,29.82,NNW,338,0.0,2.0,76,0.00,,,0.00,vanprod-2.5-rc3,2013-01-10 16:06:00,
2013-01-10 09:11:00,18.5,12.2,29.82,East,96,5.0,6.0,76,0.00,,,0.00,vanprod-2.5-rc3,2013-01-10 16:11:00,
2013-01-10 09:16:00,18.9,12.6,29.81,East,93,5.0,5.0,76,0.00,,,0.00,vanprod-2.5-rc3,2013-01-10 16:16:00,
2013-01-10 09:21:00,19.4,12.8,29.81,NE,43,2.0,2.0,75,0.00,,,0.00,vanprod-2.5-rc3,2013-01-10 16:21:00,
2013-01-10 09:26:00,19.7,12.8,29.80,NE,41,0.0,0.0,74,0.00,,,0.00,vanprod-2.5-rc3,2013-01-10 16:26:00,
2013-01-10 09:32:00,19.7,12.5,29.81,South,191,3.0,4.0,73,0.00,,,0.00,vanprod-2.5-rc3,2013-01-10 16:32:00,
2013-01-10 09:37:00,19.3,12.4,29.80,South,191,0.0,0.0,74,0.00,,,0.00,vanprod-2.5-rc3,2013-01-10 16:37:00,
2013-01-10 09:42:00,19.1,12.2,29.80,SW,226,0.0,0.0,74,0.00,,,0.00,vanprod-2.5-rc3,2013-01-10 16:42:00,
2013-01-10 09:47:00,18.9,12.3,29.80,SSW,193,1.0,2.0,75,0.00,,,0.00,vanprod-2.5-rc3,2013-01-10 16:47:00,
2013-01-10 09:52:00,19.3,13.0,29.81,SSE,148,1.0,3.0,76,0.00,,,0.00,vanprod-2.5-rc3,2013-01-10 16:52:00,
2013-01-10 09:57:00,20.2,13.6,29.80,ENE,70,4.0,6.0,75,0.00,,,0.00,vanprod-2.5-rc3,2013-01-10 16:57:00,
2013-01-10 10:02:00,21.3,14.3,29.80,SSE,147,2.0,3.0,74,0.00,,,0.00,vanprod-2.5-rc3,2013-01-10 17:02:00,
2013-01-10 10:07:00,21.6,14.0,29.80,SSW,197,3.0,3.0,72,0.00,,,0.00,vanprod-2.5-rc3,2013-01-10 17:07:00,
2013-01-10 10:12:00,21.5,13.6,29.80,SSW,200,4.0,6.0,71,0.00,,,0.00,vanprod-2.5-rc3,2013-01-10 17:12:00,
2013-01-10 10:17:00,21.3,13.4,29.80,SSW,195,0.0,0.0,71,0.00,,,0.00,vanprod-2.5-rc3,2013-01-10 17:17:00,
2013-01-10 10:22:00,21.2,13.6,29.80,South,185,1.0,0.0,72,0.00,,,0.00,vanprod-2.5-rc3,2013-01-10 17:22:00,
2013-01-10 10:27:00,21.3,13.7,29.80,SSW,194,4.0,4.0,72,0.00,,,0.00,vanprod-2.5-rc3,2013-01-10 17:27:00,
2013-01-10 10:32:00,21.6,14.3,29.80,SSW,192,0.0,0.0,73,0.00,,,0.00,vanprod-2.5-rc3,2013-01-10 17:32:00,
2013-01-10 10:37:00,22.0,14.7,29.80,SSW,195,0.0,0.0,73,0.00,,,0.00,vanprod-2.5-rc3,2013-01-10 17:37:00,
2013-01-10 10:42:00,22.3,14.3,29.79,SSW,196,0.0,0.0,71,0.00,,,0.00,vanprod-2.5-rc3,2013-01-10 17:42:00,
2013-01-10 10:47:00,22.4,14.8,29.79,SSW,197,0.0,0.0,72,0.00,,,0.00,vanprod-2.5-rc3,2013-01-10 17:47:00,
2013-01-10 10:52:00,23.2,16.2,29.80,SSW,195,0.0,0.0,74,0.00,,,0.00,vanprod-2.5-rc3,2013-01-10 17:52:00,
2013-01-10 10:57:00,24.0,16.0,29.79,SSW,195,0.0,0.0,71,0.00,,,0.00,vanprod-2.5-rc3,2013-01-10 17:57:00,
2013-01-10 11:02:00,24.4,16.0,29.79,ESE,109,0.0,0.0,70,0.00,,,0.00,vanprod-2.5-rc3,2013-01-10 18:02:00,
2013-01-10 11:07:00,24.8,16.1,29.79,SE,143,0.0,0.0,69,0.00,,,0.00,vanprod-2.5-rc3,2013-01-10 18:07:00,
2013-01-10 11:12:00,24.9,16.2,29.78,SSW,197,0.0,0.0,69,0.00,,,0.00,vanprod-2.5-rc3,2013-01-10 18:12:00,
2013-01-10 11:17:00,25.3,16.6,29.77,SSW,197,0.0,0.0,69,0.00,,,0.00,vanprod-2.5-rc3,2013-01-10 18:17:00,
2013-01-10 11:22:00,25.8,17.0,29.75,SSW,197,0.0,0.0,69,0.00,,,0.00,vanprod-2.5-rc3,2013-01-10 18:22:00,
2013-01-10 11:27:00,26.2,16.4,29.75,SSW,197,0.0,0.0,66,0.00,,,0.00,vanprod-2.5-rc3,2013-01-10 18:27:00,
2013-01-10 11:32:00,26.5,16.3,29.74,NNE,26,2.0,2.0,65,0.00,,,0.00,vanprod-2.5-rc3,2013-01-10 18:32:00,
2013-01-10 11:37:00,26.2,16.4,29.74,North,10,3.0,3.0,66,0.00,,,0.00,vanprod-2.5-rc3,2013-01-10 18:37:00,
2013-01-10 11:42:00,26.0,16.6,29.74,NNE,23,3.0,0.0,67,0.00,,,0.00,vanprod-2.5-rc3,2013-01-10 18:42:00,
2013-01-10 11:47:00,26.1,16.7,29.73,NE,39,3.0,3.0,67,0.00,,,0.00,vanprod-2.5-rc3,2013-01-10 18:47:00,
2013-01-10 11:52:00,26.2,16.8,29.72,NNE,30,1.0,4.0,67,0.00,,,0.00,vanprod-2.5-rc3,2013-01-10 18:52:00,
2013-01-10 11:57:00,26.6,16.8,29.72,NNE,28,4.0,4.0,66,0.00,,,0.00,vanprod-2.5-rc3,2013-01-10 18:57:00,
2013-01-10 12:02:00,27.1,16.9,29.72,NNE,28,0.0,6.0,65,0.00,,,0.00,vanprod-2.5-rc3,2013-01-10 19:02:00,
2013-01-10 12:07:00,27.5,16.9,29.73,NNE,15,0.0,0.0,64,0.00,,,0.00,vanprod-2.5-rc3,2013-01-10 19:07:00,
2013-01-10 12:12:00,27.8,17.2,29.73,NNE,15,1.0,3.0,64,0.00,,,0.00,vanprod-2.5-rc3,2013-01-10 19:12:00,
2013-01-10 12:17:00,27.8,16.9,29.72,NE,49,3.0,3.0,63,0.00,,,0.00,vanprod-2.5-rc3,2013-01-10 19:17:00,
2013-01-10 12:22:00,28.2,18.0,29.71,ENE,76,5.0,6.0,65,0.00,,,0.00,vanprod-2.5-rc3,2013-01-10 19:22:00,
2013-01-10 12:27:00,28.6,17.6,29.71,ENE,61,3.0,3.0,63,0.00,,,0.00,vanprod-2.5-rc3,2013-01-10 19:27:00,
2013-01-10 12:32:00,28.9,18.6,29.71,East,89,3.0,3.0,65,0.00,,,0.00,vanprod-2.5-rc3,2013-01-10 19:32:00,
2013-01-10 12:37:00,29.2,18.6,29.71,East,92,3.0,3.0,64,0.00,,,0.00,vanprod-2.5-rc3,2013-01-10 19:37:00,
2013-01-10 12:42:00,29.6,18.9,29.69,ESE,111,0.0,0.0,64,0.00,,,0.00,vanprod-2.5-rc3,2013-01-10 19:42:00,
2013-01-10 12:47:00,29.8,18.8,29.69,East,86,0.0,0.0,63,0.00,,,0.00,vanprod-2.5-rc3,2013-01-10 19:47:00,
2013-01-10 12:52:00,30.0,18.6,29.69,ENE,65,0.0,0.0,62,0.00,,,0.00,vanprod-2.5-rc3,2013-01-10 19:52:00,
2013-01-10 12:57:00,30.0,18.9,29.68,ENE,65,0.0,0.0,63,0.00,,,0.00,vanprod-2.5-rc3,2013-01-10 19:57:00,
2013-01-10 13:02:00,30.1,19.0,29.69,ENE,62,0.0,0.0,63,0.00,,,0.00,vanprod-2.5-rc3,2013-01-10 20:02:00,
2013-01-10 13:07:00,29.9,18.1,29.68,NE,34,0.0,0.0,61,0.00,,,0.00,vanprod-2.5-rc3,2013-01-10 20:07:00,
2013-01-10 13:12:00,29.7,17.9,29.68,NNE,26,0.0,0.0,61,0.00,,,0.00,vanprod-2.5-rc3,2013-01-10 20:12:00,
2013-01-10 13:17:00,29.6,18.2,29.68,NE,40,1.0,3.0,62,0.00,,,0.00,vanprod-2.5-rc3,2013-01-10 20:17:00,
2013-01-10 13:22:00,29.5,18.1,29.68,ENE,58,0.0,0.0,62,0.00,,,0.00,vanprod-2.5-rc3,2013-01-10 20:22:00,
2013-01-10 13:27:00,29.3,17.5,29.67,NE,50,0.0,0.0,61,0.00,,,0.00,vanprod-2.5-rc3,2013-01-10 20:27:00,
2013-01-10 13:32:00,29.2,18.2,29.67,ENE,76,1.0,4.0,63,0.00,,,0.00,vanprod-2.5-rc3,2013-01-10 20:32:00,
2013-01-10 13:37:00,29.4,18.7,29.67,ENE,75,1.0,0.0,64,0.00,,,0.00,vanprod-2.5-rc3,2013-01-10 20:37:00,
2013-01-10 13:42:00,29.5,19.6,29.66,East,88,0.0,0.0,66,0.00,,,0.00,vanprod-2.5-rc3,2013-01-10 20:42:00,
2013-01-10 13:47:00,29.7,19.7,29.66,East,88,0.0,0.0,66,0.00,,,0.00,vanprod-2.5-rc3,2013-01-10 20:47:00,
2013-01-10 13:52:00,29.9,19.2,29.66,East,86,0.0,0.0,64,0.00,,,0.00,vanprod-2.5-rc3,2013-01-10 20:52:00,
2013-01-10 13:57:00,30.1,19.4,29.66,East,86,0.0,0.0,64,0.00,,,0.00,vanprod-2.5-rc3,2013-01-10 20:57:00,
2013-01-10 14:02:00,30.0,18.6,29.66,SSE,162,0.0,1.0,62,0.00,,,0.00,vanprod-2.5-rc3,2013-01-10 21:02:00,
2013-01-10 14:07:00,29.7,18.7,29.66,SSW,208,0.0,0.0,63,0.00,,,0.00,vanprod-2.5-rc3,2013-01-10 21:07:00,
2013-01-10 14:12:00,29.6,18.9,29.66,SSW,208,0.0,0.0,64,0.00,,,0.00,vanprod-2.5-rc3,2013-01-10 21:12:00,
2013-01-10 14:17:00,29.7,19.7,29.65,SSW,208,0.0,0.0,66,0.00,,,0.00,vanprod-2.5-rc3,2013-01-10 21:17:00,
2013-01-10 14:22:00,29.9,18.9,29.65,East,88,2.0,3.0,63,0.00,,,0.00,vanprod-2.5-rc3,2013-01-10 21:22:00,
2013-01-10 14:27:00,29.9,18.5,29.65,NNE,23,0.0,0.0,62,0.00,,,0.00,vanprod-2.5-rc3,2013-01-10 21:27:00,
2013-01-10 14:32:00,30.1,18.3,29.64,NE,56,0.0,0.0,61,0.00,,,0.00,vanprod-2.5-rc3,2013-01-10 21:32:00,
2013-01-10 14:37:00,30.3,19.2,29.64,ENE,64,0.0,0.0,63,0.00,,,0.00,vanprod-2.5-rc3,2013-01-10 21:37:00,
2013-01-10 14:42:00,30.4,18.2,29.64,ENE,61,1.0,0.0,60,0.00,,,0.00,vanprod-2.5-rc3,2013-01-10 21:42:00,
2013-01-10 14:47:00,30.3,18.1,29.64,NE,48,0.0,0.0,60,0.00,,,0.00,vanprod-2.5-rc3,2013-01-10 21:47:00,
2013-01-10 14:52:00,30.2,18.0,29.64,NE,48,0.0,0.0,60,0.00,,,0.00,vanprod-2.5-rc3,2013-01-10 21:52:00,
2013-01-10 14:57:00,30.3,19.6,29.64,SE,143,0.0,0.0,64,0.00,,,0.00,vanprod-2.5-rc3,2013-01-10 21:57:00,
2013-01-10 15:02:00,30.1,19.4,29.64,SW,218,0.0,0.0,64,0.00,,,0.00,vanprod-2.5-rc3,2013-01-10 22:02:00,
2013-01-10 15:07:00,29.9,19.6,29.64,SW,215,2.0,2.0,65,0.00,,,0.00,vanprod-2.5-rc3,2013-01-10 22:07:00,
2013-01-10 15:12:00,29.8,19.8,29.64,SSW,213,0.0,0.0,66,0.00,,,0.00,vanprod-2.5-rc3,2013-01-10 22:12:00,
2013-01-10 15:17:00,29.5,19.6,29.64,SSW,213,1.0,2.0,66,0.00,,,0.00,vanprod-2.5-rc3,2013-01-10 22:17:00,
2013-01-10 15:22:00,29.3,19.7,29.63,SSW,200,3.0,3.0,67,0.00,,,0.00,vanprod-2.5-rc3,2013-01-10 22:22:00,
2013-01-10 15:27:00,29.2,19.3,29.63,SSW,198,0.0,0.0,66,0.00,,,0.00,vanprod-2.5-rc3,2013-01-10 22:27:00,
2013-01-10 15:32:00,29.2,20.0,29.62,SSW,198,0.0,0.0,68,0.00,,,0.00,vanprod-2.5-rc3,2013-01-10 22:32:00,
2013-01-10 15:37:00,29.4,20.2,29.62,SSW,193,0.0,0.0,68,0.00,,,0.00,vanprod-2.5-rc3,2013-01-10 22:37:00,
2013-01-10 15:42:00,29.6,20.7,29.62,East,92,0.0,0.0,69,0.00,,,0.00,vanprod-2.5-rc3,2013-01-10 22:42:00,
2013-01-10 15:47:00,29.7,20.4,29.62,East,92,0.0,0.0,68,0.00,,,0.00,vanprod-2.5-rc3,2013-01-10 22:47:00,
2013-01-10 15:52:00,29.9,21.7,29.62,East,92,0.0,0.0,71,0.00,,,0.00,vanprod-2.5-rc3,2013-01-10 22:52:00,
2013-01-10 15:57:00,30.0,20.7,29.62,East,92,0.0,0.0,68,0.00,,,0.00,vanprod-2.5-rc3,2013-01-10 22:57:00,
2013-01-10 16:02:00,29.8,20.2,29.62,East,92,0.0,0.0,67,0.00,,,0.00,vanprod-2.5-rc3,2013-01-10 23:02:00,
2013-01-10 16:07:00,29.4,19.8,29.61,NNE,33,1.0,5.0,67,0.00,,,0.00,vanprod-2.5-rc3,2013-01-10 23:07:00,
2013-01-10 16:12:00,28.9,19.7,29.60,NE,49,3.0,3.0,68,0.00,,,0.00,vanprod-2.5-rc3,2013-01-10 23:12:00,
2013-01-10 16:17:00,28.9,19.7,29.60,NE,40,0.0,0.0,68,0.00,,,0.00,vanprod-2.5-rc3,2013-01-10 23:17:00,
2013-01-10 16:22:00,28.8,19.9,29.60,NNE,22,0.0,0.0,69,0.00,,,0.00,vanprod-2.5-rc3,2013-01-10 23:22:00,
2013-01-10 16:27:00,28.8,20.3,29.60,NNE,22,0.0,0.0,70,0.00,,,0.00,vanprod-2.5-rc3,2013-01-10 23:27:00,
2013-01-10 16:32:00,28.8,19.9,29.60,NNE,22,0.0,0.0,69,0.00,,,0.00,vanprod-2.5-rc3,2013-01-10 23:32:00,
2013-01-10 16:37:00,28.8,19.9,29.61,NNE,21,0.0,0.0,69,0.00,,,0.00,vanprod-2.5-rc3,2013-01-10 23:37:00,
2013-01-10 16:42:00,28.7,19.8,29.60,NNE,18,0.0,0.0,69,0.00,,,0.00,vanprod-2.5-rc3,2013-01-10 23:42:00,
2013-01-10 16:47:00,28.7,19.5,29.60,SW,221,0.0,0.0,68,0.00,,,0.00,vanprod-2.5-rc3,2013-01-10 23:47:00,
2013-01-10 16:52:00,28.6,19.7,29.59,SW,221,0.0,0.0,69,0.00,,,0.00,vanprod-2.5-rc3,2013-01-10 23:52:00,
2013-01-10 16:57:00,28.5,20.0,29.60,SW,221,0.0,0.0,70,0.00,,,0.00,vanprod-2.5-rc3,2013-01-10 23:57:00,
2013-01-10 17:02:00,28.3,19.4,29.59,SW,221,0.0,0.0,69,0.00,,,0.00,vanprod-2.5-rc3,2013-01-11 00:02:00,
2013-01-10 17:07:00,28.3,19.8,29.58,SW,221,0.0,0.0,70,0.00,,,0.00,vanprod-2.5-rc3,2013-01-11 00:07:00,
2013-01-10 17:12:00,28.2,20.0,29.58,SW,219,0.0,0.0,71,0.00,,,0.00,vanprod-2.5-rc3,2013-01-11 00:12:00,
2013-01-10 17:17:00,28.3,20.1,29.58,SW,219,0.0,0.0,71,0.00,,,0.00,vanprod-2.5-rc3,2013-01-11 00:17:00,
2013-01-10 17:22:00,28.3,19.8,29.58,SW,219,0.0,0.0,70,0.00,,,0.00,vanprod-2.5-rc3,2013-01-11 00:22:00,
2013-01-10 17:27:00,28.2,19.7,29.58,SW,218,0.0,0.0,70,0.00,,,0.00,vanprod-2.5-rc3,2013-01-11 00:27:00,
2013-01-10 17:32:00,28.1,20.3,29.58,SW,217,0.0,0.0,72,0.00,,,0.00,vanprod-2.5-rc3,2013-01-11 00:32:00,
2013-01-10 17:37:00,27.9,19.4,29.57,SSW,196,0.0,0.0,70,0.00,,,0.00,vanprod-2.5-rc3,2013-01-11 00:37:00,
2013-01-10 17:42:00,27.6,19.4,29.58,NE,51,0.0,0.0,71,0.00,,,0.00,vanprod-2.5-rc3,2013-01-11 00:42:00,
2013-01-10 17:47:00,27.5,19.3,29.57,NE,51,0.0,0.0,71,0.00,,,0.00,vanprod-2.5-rc3,2013-01-11 00:47:00,
2013-01-10 17:52:00,27.4,19.3,29.58,NE,51,0.0,0.0,71,0.00,,,0.00,vanprod-2.5-rc3,2013-01-11 00:52:00,
2013-01-10 17:57:00,27.4,19.3,29.57,NE,51,2.0,3.0,71,0.00,,,0.00,vanprod-2.5-rc3,2013-01-11 00:57:00,
2013-01-10 18:02:00,27.5,19.0,29.57,NE,51,0.0,0.0,70,0.00,,,0.00,vanprod-2.5-rc3,2013-01-11 01:02:00,
2013-01-10 18:07:00,27.6,19.4,29.57,South,187,1.0,0.0,71,0.00,,,0.00,vanprod-2.5-rc3,2013-01-11 01:07:00,
2013-01-10 18:12:00,27.6,19.4,29.57,South,187,0.0,0.0,71,0.00,,,0.00,vanprod-2.5-rc3,2013-01-11 01:12:00,
2013-01-10 18:17:00,27.7,19.2,29.57,South,187,0.0,0.0,70,0.00,,,0.00,vanprod-2.5-rc3,2013-01-11 01:17:00,
2013-01-10 18:22:00,27.8,19.6,29.57,South,186,0.0,0.0,71,0.00,,,0.00,vanprod-2.5-rc3,2013-01-11 01:22:00,
2013-01-10 18:27:00,27.9,19.7,29.56,SSE,153,0.0,0.0,71,0.00,,,0.00,vanprod-2.5-rc3,2013-01-11 01:27:00,
2013-01-10 18:32:00,27.8,19.6,29.56,ENE,75,2.0,5.0,71,0.00,,,0.00,vanprod-2.5-rc3,2013-01-11 01:32:00,
2013-01-10 18:37:00,27.7,19.5,29.56,ENE,63,4.0,5.0,71,0.00,,,0.00,vanprod-2.5-rc3,2013-01-11 01:37:00,
2013-01-10 18:42:00,27.5,19.3,29.55,North,11,4.0,5.0,71,0.00,,,0.00,vanprod-2.5-rc3,2013-01-11 01:42:00,
2013-01-10 18:47:00,27.3,18.8,29.55,ENE,73,5.0,9.0,70,0.00,,,0.00,vanprod-2.5-rc3,2013-01-11 01:47:00,
2013-01-10 18:52:00,27.5,19.0,29.56,ENE,69,3.0,3.0,70,0.00,,,0.00,vanprod-2.5-rc3,2013-01-11 01:52:00,
2013-01-10 18:57:00,27.7,18.9,29.56,ENE,74,3.0,3.0,69,0.00,,,0.00,vanprod-2.5-rc3,2013-01-11 01:57:00,
2013-01-10 19:02:00,27.9,19.1,29.55,East,86,2.0,2.0,69,0.00,,,0.00,vanprod-2.5-rc3,2013-01-11 02:02:00,
2013-01-10 19:07:00,28.1,19.3,29.55,ESE,109,0.0,0.0,69,0.00,,,0.00,vanprod-2.5-rc3,2013-01-11 02:07:00,
2013-01-10 19:12:00,28.2,19.4,29.55,SSE,163,0.0,0.0,69,0.00,,,0.00,vanprod-2.5-rc3,2013-01-11 02:12:00,
2013-01-10 19:17:00,28.0,19.2,29.54,East,89,1.0,5.0,69,0.00,,,0.00,vanprod-2.5-rc3,2013-01-11 02:17:00,
2013-01-10 19:22:00,27.7,19.2,29.54,ENE,70,3.0,3.0,70,0.00,,,0.00,vanprod-2.5-rc3,2013-01-11 02:22:00,
2013-01-10 19:27:00,27.7,19.5,29.53,NNE,25,4.0,4.0,71,0.00,,,0.00,vanprod-2.5-rc3,2013-01-11 02:27:00,
2013-01-10 19:32:00,27.8,19.3,29.54,SSE,163,2.0,7.0,70,0.00,,,0.00,vanprod-2.5-rc3,2013-01-11 02:32:00,
2013-01-10 19:37:00,28.1,19.3,29.53,NE,51,0.0,0.0,69,0.00,,,0.00,vanprod-2.5-rc3,2013-01-11 02:37:00,
2013-01-10 19:42:00,28.1,19.6,29.52,ENE,75,7.0,10.0,70,0.00,,,0.00,vanprod-2.5-rc3,2013-01-11 02:42:00,
2013-01-10 19:47:00,28.0,19.2,29.52,ENE,67,5.0,6.0,69,0.00,,,0.00,vanprod-2.5-rc3,2013-01-11 02:47:00,
2013-01-10 19:52:00,28.0,19.2,29.52,SSE,164,0.0,0.0,69,0.00,,,0.00,vanprod-2.5-rc3,2013-01-11 02:52:00,
2013-01-10 19:57:00,28.0,19.2,29.52,East,97,5.0,7.0,69,0.00,,,0.00,vanprod-2.5-rc3,2013-01-11 02:57:00,
2013-01-10 20:02:00,28.0,19.2,29.52,South,176,2.0,5.0,69,0.00,,,0.00,vanprod-2.5-rc3,2013-01-11 03:02:00,
2013-01-10 20:07:00,28.1,19.3,29.51,East,101,0.0,0.0,69,0.00,,,0.00,vanprod-2.5-rc3,2013-01-11 03:07:00,
2013-01-10 20:12:00,28.2,19.4,29.51,SSE,152,2.0,6.0,69,0.00,,,0.00,vanprod-2.5-rc3,2013-01-11 03:12:00,
2013-01-10 20:17:00,28.7,19.1,29.50,NE,55,5.0,6.0,67,0.00,,,0.00,vanprod-2.5-rc3,2013-01-11 03:17:00,
2013-01-10 20:22:00,29.2,19.6,29.50,NE,34,5.0,6.0,67,0.00,,,0.00,vanprod-2.5-rc3,2013-01-11 03:22:00,
2013-01-10 20:27:00,29.4,19.8,29.50,NNE,24,3.0,4.0,67,0.00,,,0.00,vanprod-2.5-rc3,2013-01-11 03:27:00,
2013-01-10 20:32:00,28.9,19.3,29.50,South,190,0.0,0.0,67,0.00,,,0.00,vanprod-2.5-rc3,2013-01-11 03:32:00,
2013-01-10 20:37:00,28.1,18.9,29.50,NNW,328,1.0,0.0,68,0.00,,,0.00,vanprod-2.5-rc3,2013-01-11 03:37:00,
2013-01-10 20:42:00,27.5,19.0,29.49,ESE,117,0.0,0.0,70,0.00,,,0.00,vanprod-2.5-rc3,2013-01-11 03:42:00,
2013-01-10 20:47:00,27.3,19.2,29.48,ESE,122,1.0,0.0,71,0.00,,,0.00,vanprod-2.5-rc3,2013-01-11 03:47:00,
2013-01-10 20:52:00,27.4,19.3,29.48,NNE,14,2.0,8.0,71,0.00,,,0.00,vanprod-2.5-rc3,2013-01-11 03:52:00,
2013-01-10 20:57:00,27.9,19.4,29.49,South,191,4.0,7.0,70,0.00,,,0.00,vanprod-2.5-rc3,2013-01-11 03:57:00,
2013-01-10 21:02:00,27.9,19.1,29.47,SSE,155,0.0,4.0,69,0.00,,,0.00,vanprod-2.5-rc3,2013-01-11 04:02:00,
2013-01-10 21:07:00,27.7,19.2,29.47,SSW,201,3.0,6.0,70,0.00,,,0.00,vanprod-2.5-rc3,2013-01-11 04:07:00,
2013-01-10 21:12:00,28.1,19.3,29.46,NNE,13,2.0,9.0,69,0.00,,,0.00,vanprod-2.5-rc3,2013-01-11 04:12:00,
2013-01-10 21:17:00,28.9,19.7,29.47,NNE,30,0.0,0.0,68,0.00,,,0.00,vanprod-2.5-rc3,2013-01-11 04:17:00,
2013-01-10 21:22:00,29.2,19.6,29.46,NE,35,6.0,8.0,67,0.00,,,0.00,vanprod-2.5-rc3,2013-01-11 04:22:00,
2013-01-10 21:27:00,29.5,19.9,29.45,NE,51,5.0,7.0,67,0.00,,,0.00,vanprod-2.5-rc3,2013-01-11 04:27:00,
2013-01-10 21:32:00,29.8,20.2,29.45,NE,46,4.0,7.0,67,0.00,,,0.00,vanprod-2.5-rc3,2013-01-11 04:32:00,
2013-01-10 21:37:00,29.9,20.3,29.45,South,186,4.0,7.0,67,0.00,,,0.00,vanprod-2.5-rc3,2013-01-11 04:37:00,
2013-01-10 21:42:00,29.5,19.6,29.44,ENE,70,1.0,3.0,66,0.00,,,0.00,vanprod-2.5-rc3,2013-01-11 04:42:00,
2013-01-10 21:47:00,29.6,19.7,29.45,SSW,197,2.0,4.0,66,0.00,,,0.00,vanprod-2.5-rc3,2013-01-11 04:47:00,
2013-01-10 21:52:00,29.1,18.8,29.44,SSW,194,0.0,0.0,65,0.00,,,0.00,vanprod-2.5-rc3,2013-01-11 04:52:00,
2013-01-10 21:57:00,28.2,18.3,29.42,NE,38,0.0,0.0,66,0.00,,,0.00,vanprod-2.5-rc3,2013-01-11 04:57:00,
2013-01-10 22:00:00,27.7,18.5,29.42,SE,144,0.0,0.0,68,0.00,,,0.00,vanprod-2.5-rc3,2013-01-11 05:00:00,
2013-01-10 22:01:00,27.7,18.5,29.42,SE,143,0.0,2.0,68,0.00,,,0.00,vanprod-2.5-rc3,2013-01-11 05:01:00,
2013-01-10 22:03:00,27.6,18.8,29.42,ESE,109,1.0,2.0,69,0.00,,,0.00,vanprod-2.5-rc3,2013-01-11 05:03:00,
2013-01-10 22:08:00,27.5,19.0,29.43,SSW,204,1.0,1.0,70,0.00,,,0.00,vanprod-2.5-rc3,2013-01-11 05:08:00,
2013-01-10 22:13:00,27.5,19.0,29.42,ESE,107,1.0,2.0,70,0.00,,,0.00,vanprod-2.5-rc3,2013-01-11 05:13:00,
2013-01-10 22:18:00,27.4,18.9,29.43,SW,229,5.0,10.0,70,0.00,,,0.00,vanprod-2.5-rc3,2013-01-11 05:18:00,
2013-01-10 22:23:00,27.5,19.0,29.41,SE,135,2.0,4.0,70,0.00,,,0.00,vanprod-2.5-rc3,2013-01-11 05:23:00,
2013-01-10 22:28:00,28.1,19.6,29.41,WSW,258,0.0,1.0,70,0.00,,,0.00,vanprod-2.5-rc3,2013-01-11 05:28:00,
2013-01-10 22:33:00,30.5,20.5,29.42,NNE,21,0.0,0.0,66,0.00,,,0.00,vanprod-2.5-rc3,2013-01-11 05:33:00,
2013-01-10 22:38:00,31.1,20.7,29.42,NNE,20,0.0,0.0,65,0.00,,,0.00,vanprod-2.5-rc3,2013-01-11 05:38:00,
2013-01-10 22:43:00,30.7,20.0,29.42,ESE,114,2.0,3.0,64,0.00,,,0.00,vanprod-2.5-rc3,2013-01-11 05:43:00,
2013-01-10 22:48:00,29.9,20.3,29.42,SSE,165,0.0,0.0,67,0.00,,,0.00,vanprod-2.5-rc3,2013-01-11 05:48:00,
2013-01-10 22:53:00,29.5,20.3,29.42,SE,134,0.0,0.0,68,0.00,,,0.00,vanprod-2.5-rc3,2013-01-11 05:53:00,
2013-01-10 22:58:00,29.6,20.7,29.41,SE,130,0.0,0.0,69,0.00,,,0.00,vanprod-2.5-rc3,2013-01-11 05:58:00,
2013-01-10 23:03:00,30.3,21.0,29.43,SW,222,0.0,0.0,68,0.00,,,0.00,vanprod-2.5-rc3,2013-01-11 06:03:00,
2013-01-10 23:08:00,31.6,21.9,29.41,SSW,199,0.0,0.0,67,0.00,,,0.00,vanprod-2.5-rc3,2013-01-11 06:08:00,
2013-01-10 23:13:00,32.0,21.9,29.41,SSE,168,0.0,2.0,66,0.00,,,0.00,vanprod-2.5-rc3,2013-01-11 06:13:00,
2013-01-10 23:18:00,32.4,22.3,29.41,NW,305,0.0,0.0,66,0.00,,,0.00,vanprod-2.5-rc3,2013-01-11 06:18:00,
2013-01-10 23:23:00,32.9,22.4,29.42,SW,214,1.0,4.0,65,0.00,,,0.00,vanprod-2.5-rc3,2013-01-11 06:23:00,
2013-01-10 23:28:00,33.7,22.8,29.42,WSW,239,2.0,9.0,64,0.00,,,0.00,vanprod-2.5-rc3,2013-01-11 06:28:00,
2013-01-10 23:33:00,34.5,24.0,29.41,SW,220,6.0,6.0,65,0.00,,,0.00,vanprod-2.5-rc3,2013-01-11 06:33:00,
2013-01-10 23:38:00,34.9,24.0,29.40,SW,221,4.0,4.0,64,0.00,,,0.00,vanprod-2.5-rc3,2013-01-11 06:38:00,
2013-01-10 23:43:00,34.7,23.8,29.39,SSW,199,2.0,4.0,64,0.00,,,0.00,vanprod-2.5-rc3,2013-01-11 06:43:00,
2013-01-10 23:48:00,34.7,23.8,29.40,SW,224,9.0,9.0,64,0.00,,,0.00,vanprod-2.5-rc3,2013-01-11 06:48:00,
2013-01-10 23:53:00,34.6,23.7,29.39,SSW,204,0.0,2.0,64,0.00,,,0.00,vanprod-2.5-rc3,2013-01-11 06:53:00,
2013-01-10 23:58:00,34.9,24.3,29.39,WSW,238,4.0,5.0,65,0.00,,,0.00,vanprod-2.5-rc3,2013-01-11 06:58:00,